Scotland, Georgia
Current Conditions -  °F | °C
As of 6:15 AM on Monday 22 Dec 2014 (Local Time) from KAZE Reporting Station
Moderate Fog Moderate Fog  
Wind Chill: 47°   Ceiling: 200
Heat Index: 49°   Visibility: 0.5mi
Dew Point: 49°   Wind: 5mph
Humidity: 100%   Direction: 10°N
Pressure: 30.02"   Gusts: NA
Location:  32.05°N, 82.82°W
Report Text: KAZE 221115Z AUTO 01004KT 1/2SM FG OVC002 09/09 A3002 RMK AO2 T00920092
Loading
Personal Weather Stations






























Interactive Weather Map New forecast layout! Learn more

10-Day Weather Forecast

Advertisements
Track Severe Weather on mobile